Time;durP1;ratioP1;P1;durP2;ratioP2;P2;SDS_P1;SDS_P2;PMS_P1;PMS_P2;Temp;Humidity;BMP_temperature;BMP_pressure;BME280_temperature;BME280_humidity;BME280_pressure;Samples;Min_cycle;Max_cycle;Signal;HPM_P1;HPM_P2
2021/08/30 00:00:10;;;;;;;12.02;8.52;;;;;;;;;;5022668;28;20118;-80
2021/08/30 00:02:37;;;;;;;12.18;8.65;;;;;;;;;;5040124;28;20045;-80
2021/08/30 00:05:04;;;;;;;13.25;8.70;;;;;;;;;;5023285;28;20033;-80
2021/08/30 00:07:30;;;;;;;13.02;7.50;;;;;;;;;;5046595;28;20028;-80
2021/08/30 00:09:55;;;;;;;13.10;7.57;;;;;;;;;;5078800;28;20032;-80
2021/08/30 00:12:21;;;;;;;12.73;8.23;;;;;;;;;;5079203;28;20036;-80
2021/08/30 00:14:46;;;;;;;10.85;7.95;;;;;;;;;;5079339;28;20482;-80
2021/08/30 00:17:11;;;;;;;13.45;7.88;;;;;;;;;;5061553;28;20509;-80
2021/08/30 00:19:37;;;;;;;10.50;7.63;;;;;;;;;;5076993;28;20099;-80
2021/08/30 00:22:03;;;;;;;13.93;7.82;;;;;;;;;;5078372;28;20131;-80
2021/08/30 00:24:29;;;;;;;11.20;8.43;;;;;;;;;;5077818;28;20478;-80
2021/08/30 00:26:55;;;;;;;12.70;8.57;;;;;;;;;;5077687;28;20124;-80
2021/08/30 00:29:25;;;;;;;10.00;8.20;;;;;;;;;;5077933;28;20410;-79
2021/08/30 00:31:52;;;;;;;9.27;7.40;;;;;;;;;;5077389;28;20040;-79
2021/08/30 00:34:18;;;;;;;11.88;7.13;;;;;;;;;;5077479;28;20558;-80
2021/08/30 00:36:44;;;;;;;10.80;7.70;;;;;;;;;;5077659;28;20032;-79
2021/08/30 00:39:10;;;;;;;10.13;7.03;;;;;;;;;;5059914;28;20036;-79
2021/08/30 00:41:39;;;;;;;9.52;7.20;;;;;;;;;;5058645;28;20033;-79
2021/08/30 00:44:05;;;;;;;10.25;7.45;;;;;;;;;;5056791;28;20059;-79
2021/08/30 00:46:32;;;;;;;10.93;7.65;;;;;;;;;;5040701;28;20035;-79
2021/08/30 00:48:58;;;;;;;10.25;7.30;;;;;;;;;;5056777;28;20094;-79
2021/08/30 00:51:25;;;;;;;8.25;6.97;;;;;;;;;;5057859;28;20040;-78
2021/08/30 00:53:51;;;;;;;9.45;7.10;;;;;;;;;;5037683;28;20028;-78
2021/08/30 00:56:17;;;;;;;10.15;7.78;;;;;;;;;;5054090;28;20024;-78
2021/08/30 00:58:43;;;;;;;11.38;8.32;;;;;;;;;;5039440;28;20051;-78
2021/08/30 01:01:10;;;;;;;10.93;8.35;;;;;;;;;;5055648;28;20497;-79
2021/08/30 01:03:37;;;;;;;12.25;7.78;;;;;;;;;;5039037;28;20040;-79
2021/08/30 01:06:14;;;;;;;10.35;7.22;;;;;;;;;;5056725;28;20043;-79
2021/08/30 01:08:44;;;;;;;12.25;8.15;;;;;;;;;;5056942;28;20036;-79
2021/08/30 01:11:15;;;;;;;13.27;8.52;;;;;;;;;;5072880;28;20071;-79
2021/08/30 01:14:00;;;;;;;11.98;8.30;;;;;;;;;;5052330;28;20037;-79
2021/08/30 01:16:28;;;;;;;12.07;8.65;;;;;;;;;;5053418;28;20487;-79
2021/08/30 01:18:59;;;;;;;13.68;9.13;;;;;;;;;;5020225;28;20055;-79
2021/08/30 01:21:33;;;;;;;11.93;8.88;;;;;;;;;;5036964;28;20112;-79
2021/08/30 01:24:07;;;;;;;12.57;9.43;;;;;;;;;;5036513;28;20045;-79
2021/08/30 01:26:37;;;;;;;17.63;9.48;;;;;;;;;;5020896;28;20471;-79
2021/08/30 01:29:10;;;;;;;12.18;9.43;;;;;;;;;;5036657;28;20037;-79
2021/08/30 01:31:41;;;;;;;16.17;10.20;;;;;;;;;;5037080;28;20057;-79
2021/08/30 01:34:06;;;;;;;11.90;9.15;;;;;;;;;;5042203;28;20517;-79
2021/08/30 01:36:34;;;;;;;12.43;9.82;;;;;;;;;;5057258;28;20037;-79
2021/08/30 01:39:01;;;;;;;12.52;9.43;;;;;;;;;;5056698;28;20037;-80
2021/08/30 01:41:27;;;;;;;11.65;9.05;;;;;;;;;;5041673;28;20033;-80
2021/08/30 01:43:54;;;;;;;15.93;9.00;;;;;;;;;;5051067;28;20063;-80
2021/08/30 01:46:21;;;;;;;12.07;8.75;;;;;;;;;;5044325;28;20032;-80
2021/08/30 01:48:50;;;;;;;14.48;9.48;;;;;;;;;;5043404;28;20079;-80
2021/08/30 01:51:19;;;;;;;16.52;10.18;;;;;;;;;;5043792;28;20037;-79
2021/08/30 01:53:46;;;;;;;11.48;9.18;;;;;;;;;;5043698;28;20033;-80
2021/08/30 01:56:13;;;;;;;14.40;10.25;;;;;;;;;;5043193;28;20490;-79
2021/08/30 02:01:24;;;;;;;14.88;9.48;;;;;;;;;;5059095;28;20037;-79
2021/08/30 02:03:49;;;;;;;15.90;9.30;;;;;;;;;;5060260;28;20033;-80
2021/08/30 02:06:15;;;;;;;19.23;9.38;;;;;;;;;;5043466;28;20487;-79
2021/08/30 02:08:40;;;;;;;22.42;9.43;;;;;;;;;;5066084;28;20035;-79
2021/08/30 02:11:07;;;;;;;13.70;9.32;;;;;;;;;;5079508;28;20059;-79
2021/08/30 02:13:33;;;;;;;14.98;9.35;;;;;;;;;;5079563;28;20037;-79
2021/08/30 02:16:02;;;;;;;14.65;9.55;;;;;;;;;;5079890;28;20062;-77
2021/08/30 02:18:50;;;;;;;16.20;9.85;;;;;;;;;;5061717;28;20036;-79
2021/08/30 02:21:19;;;;;;;24.02;9.43;;;;;;;;;;5080842;28;20090;-79
2021/08/30 02:24:23;;;;;;;14.57;9.57;;;;;;;;;;5079121;28;20036;-79
2021/08/30 02:27:23;;;;;;;19.30;10.27;;;;;;;;;;5062274;28;20029;-80
2021/08/30 02:30:04;;;;;;;20.58;11.00;;;;;;;;;;5078508;28;20121;-79
2021/08/30 02:32:32;;;;;;;13.15;9.48;;;;;;;;;;5062065;28;20518;-79
2021/08/30 02:35:00;;;;;;;13.57;9.32;;;;;;;;;;5079283;28;20043;-79
2021/08/30 02:37:29;;;;;;;16.90;9.60;;;;;;;;;;5078013;28;20036;-79
2021/08/30 02:39:57;;;;;;;13.57;8.88;;;;;;;;;;5060536;28;20462;-79
2021/08/30 02:42:25;;;;;;;12.38;8.93;;;;;;;;;;5058712;28;20452;-79
2021/08/30 02:44:50;;;;;;;15.13;9.02;;;;;;;;;;5042123;28;20043;-79
2021/08/30 02:47:20;;;;;;;12.95;10.07;;;;;;;;;;5059842;28;20119;-79
2021/08/30 02:49:46;;;;;;;14.05;9.45;;;;;;;;;;5058770;28;20037;-79
2021/08/30 02:52:18;;;;;;;13.40;9.45;;;;;;;;;;5042773;28;20033;-81
2021/08/30 02:54:47;;;;;;;17.55;9.85;;;;;;;;;;5042402;28;20399;-82
2021/08/30 02:57:15;;;;;;;14.55;10.23;;;;;;;;;;5059149;28;20108;-79
2021/08/30 02:59:42;;;;;;;11.63;8.77;;;;;;;;;;5040579;28;20187;-80
2021/08/30 03:02:10;;;;;;;14.70;9.75;;;;;;;;;;5058599;28;20040;-80
2021/08/30 03:04:38;;;;;;;14.73;9.23;;;;;;;;;;5041808;28;20036;-79
2021/08/30 03:07:04;;;;;;;14.95;10.07;;;;;;;;;;5041375;28;20032;-80
2021/08/30 03:09:30;;;;;;;13.07;10.57;;;;;;;;;;5041662;28;20052;-80
2021/08/30 03:11:57;;;;;;;15.85;10.00;;;;;;;;;;5058365;28;20037;-80
2021/08/30 03:14:25;;;;;;;13.55;9.57;;;;;;;;;;5058495;28;20036;-79
2021/08/30 03:16:55;;;;;;;15.40;9.98;;;;;;;;;;5042035;28;20044;-79
2021/08/30 03:19:21;;;;;;;15.57;10.50;;;;;;;;;;5057902;28;20536;-79
2021/08/30 03:21:49;;;;;;;10.77;9.23;;;;;;;;;;5041509;28;20070;-80
2021/08/30 03:24:16;;;;;;;12.55;10.18;;;;;;;;;;5043007;28;20036;-80
2021/08/30 03:26:44;;;;;;;15.05;10.80;;;;;;;;;;5042782;28;20033;-80
2021/08/30 03:29:11;;;;;;;15.25;10.93;;;;;;;;;;5059985;28;20037;-80
2021/08/30 03:31:38;;;;;;;14.18;10.45;;;;;;;;;;5059164;28;20049;-80
2021/08/30 03:34:04;;;;;;;18.45;10.07;;;;;;;;;;5061287;28;20041;-80
2021/08/30 03:36:32;;;;;;;13.70;10.30;;;;;;;;;;5059144;28;20691;-80
2021/08/30 03:38:58;;;;;;;16.40;10.55;;;;;;;;;;5059251;28;20037;-80
2021/08/30 03:41:26;;;;;;;14.80;9.90;;;;;;;;;;5041875;28;20033;-80
2021/08/30 03:43:54;;;;;;;16.30;10.07;;;;;;;;;;5042750;28;20237;-80
2021/08/30 03:46:20;;;;;;;13.52;10.48;;;;;;;;;;5041651;28;20029;-79
2021/08/30 03:48:46;;;;;;;14.75;10.27;;;;;;;;;;5058533;28;20159;-80
2021/08/30 03:51:17;;;;;;;17.17;11.38;;;;;;;;;;5041823;28;20564;-80
2021/08/30 03:53:44;;;;;;;15.15;10.70;;;;;;;;;;5058125;28;20087;-80
2021/08/30 03:56:11;;;;;;;15.00;10.23;;;;;;;;;;5057914;28;20128;-80
2021/08/30 03:58:39;;;;;;;14.25;10.23;;;;;;;;;;5058405;28;20045;-80
2021/08/30 04:01:08;;;;;;;13.93;9.85;;;;;;;;;;5041274;28;20475;-80
2021/08/30 04:03:43;;;;;;;12.18;9.07;;;;;;;;;;5057696;28;20033;-80
2021/08/30 04:06:11;;;;;;;21.92;10.38;;;;;;;;;;5040879;28;20031;-80
2021/08/30 04:08:40;;;;;;;12.23;9.63;;;;;;;;;;5054304;28;20039;-80
2021/08/30 04:11:09;;;;;;;16.65;11.18;;;;;;;;;;5077696;28;20075;-80
2021/08/30 04:13:37;;;;;;;16.02;10.63;;;;;;;;;;5060862;28;20111;-80
2021/08/30 04:16:04;;;;;;;17.13;10.05;;;;;;;;;;5060373;28;20101;-80
2021/08/30 04:18:29;;;;;;;19.48;10.25;;;;;;;;;;5077277;28;20119;-81
2021/08/30 04:20:55;;;;;;;22.13;10.75;;;;;;;;;;5060414;28;20068;-80
2021/08/30 04:23:20;;;;;;;14.88;9.18;;;;;;;;;;5059989;28;20032;-80
2021/08/30 04:25:46;;;;;;;11.48;8.90;;;;;;;;;;5076707;28;20101;-80
2021/08/30 04:28:12;;;;;;;19.17;9.55;;;;;;;;;;5060041;28;20059;-80
2021/08/30 04:30:39;;;;;;;14.90;9.60;;;;;;;;;;5060309;28;20094;-80
2021/08/30 04:33:09;;;;;;;11.68;9.35;;;;;;;;;;5076591;28;20391;-80
2021/08/30 04:35:36;;;;;;;12.20;9.00;;;;;;;;;;5076853;28;20067;-80
2021/08/30 04:38:03;;;;;;;12.63;9.25;;;;;;;;;;5050018;28;20037;-80
2021/08/30 04:40:28;;;;;;;13.02;9.98;;;;;;;;;;5040563;28;20041;-80
2021/08/30 04:42:54;;;;;;;14.35;10.23;;;;;;;;;;5040493;28;20052;-80
2021/08/30 04:45:21;;;;;;;13.43;9.00;;;;;;;;;;5040284;28;20043;-80
2021/08/30 04:47:46;;;;;;;16.00;10.80;;;;;;;;;;5039943;28;20124;-81
2021/08/30 04:50:12;;;;;;;12.65;9.50;;;;;;;;;;5056958;28;20065;-80
2021/08/30 04:52:38;;;;;;;11.30;9.60;;;;;;;;;;5040148;28;20024;-80
2021/08/30 04:55:04;;;;;;;13.02;9.60;;;;;;;;;;5039448;28;20037;-81
2021/08/30 04:57:29;;;;;;;15.52;9.80;;;;;;;;;;5039905;28;20540;-80
2021/08/30 04:59:55;;;;;;;14.35;10.32;;;;;;;;;;5040048;28;20040;-81
2021/08/30 05:02:20;;;;;;;12.60;9.23;;;;;;;;;;5057060;28;20033;-77
2021/08/30 05:04:46;;;;;;;15.32;10.32;;;;;;;;;;5057933;28;20041;-80
2021/08/30 05:07:11;;;;;;;13.25;8.43;;;;;;;;;;5054670;28;20044;-78
2021/08/30 05:09:37;;;;;;;11.90;9.15;;;;;;;;;;5023259;28;20037;-77
2021/08/30 05:12:02;;;;;;;14.18;9.60;;;;;;;;;;5035249;28;20116;-78
2021/08/30 05:14:28;;;;;;;13.82;9.25;;;;;;;;;;5017823;28;20491;-78
2021/08/30 05:16:53;;;;;;;12.02;9.27;;;;;;;;;;5034757;28;20392;-78
2021/08/30 05:19:19;;;;;;;16.67;9.07;;;;;;;;;;5035165;28;20080;-78
2021/08/30 05:21:44;;;;;;;12.82;9.10;;;;;;;;;;5036439;28;20033;-78
2021/08/30 05:24:10;;;;;;;11.20;8.65;;;;;;;;;;5037092;28;20043;-78
2021/08/30 05:26:36;;;;;;;14.90;9.55;;;;;;;;;;5034246;28;20037;-78
2021/08/30 05:29:02;;;;;;;11.20;8.93;;;;;;;;;;5035965;28;20044;-78
2021/08/30 05:31:28;;;;;;;10.90;8.73;;;;;;;;;;5035121;28;20030;-78
2021/08/30 05:33:58;;;;;;;17.10;9.98;;;;;;;;;;5034493;28;20476;-78
2021/08/30 05:36:24;;;;;;;12.77;8.02;;;;;;;;;;5035857;28;20060;-78
2021/08/30 05:38:50;;;;;;;15.18;8.75;;;;;;;;;;5049691;28;20032;-78
2021/08/30 05:41:16;;;;;;;14.98;9.23;;;;;;;;;;5037593;28;20473;-78
2021/08/30 05:43:42;;;;;;;12.40;8.25;;;;;;;;;;5038533;28;20045;-79
2021/08/30 05:46:09;;;;;;;11.27;8.40;;;;;;;;;;5038588;28;20036;-83
2021/08/30 05:48:35;;;;;;;11.57;8.52;;;;;;;;;;5038579;28;20119;-79
2021/08/30 05:51:00;;;;;;;13.48;8.18;;;;;;;;;;5038761;28;20467;-79
2021/08/30 05:53:26;;;;;;;12.88;8.70;;;;;;;;;;5054657;28;20040;-79
2021/08/30 05:55:51;;;;;;;12.30;8.80;;;;;;;;;;5038562;28;20048;-79
2021/08/30 05:58:17;;;;;;;13.80;8.30;;;;;;;;;;5054800;28;20037;-79
2021/08/30 06:00:42;;;;;;;10.38;7.47;;;;;;;;;;5038292;28;20199;-80
2021/08/30 06:03:07;;;;;;;12.95;8.45;;;;;;;;;;5055987;28;20048;-79
2021/08/30 06:05:33;;;;;;;11.75;8.45;;;;;;;;;;5040891;28;20029;-82
2021/08/30 06:07:58;;;;;;;10.75;8.07;;;;;;;;;;5055453;28;20096;-82
2021/08/30 06:10:24;;;;;;;9.80;7.78;;;;;;;;;;5050581;28;20076;-82
2021/08/30 06:12:51;;;;;;;9.02;6.93;;;;;;;;;;5035639;28;20037;-83
2021/08/30 06:15:17;;;;;;;17.27;7.80;;;;;;;;;;5020617;28;20037;-81
2021/08/30 06:17:44;;;;;;;11.68;8.48;;;;;;;;;;5037603;28;20094;-81
2021/08/30 06:20:10;;;;;;;10.38;8.27;;;;;;;;;;5039017;28;20045;-81
2021/08/30 06:22:35;;;;;;;9.10;7.72;;;;;;;;;;5021918;28;20479;-81
2021/08/30 06:25:01;;;;;;;14.52;8.90;;;;;;;;;;5039073;28;20037;-78
2021/08/30 06:27:27;;;;;;;16.27;9.25;;;;;;;;;;5021293;28;20495;-79
2021/08/30 06:29:52;;;;;;;9.10;7.65;;;;;;;;;;5038536;28;20065;-81
2021/08/30 06:32:20;;;;;;;10.48;8.55;;;;;;;;;;5023558;28;20075;-83
2021/08/30 06:34:45;;;;;;;12.07;8.63;;;;;;;;;;5022358;28;20072;-81
2021/08/30 06:37:11;;;;;;;11.90;8.32;;;;;;;;;;5042483;28;20033;-81
2021/08/30 06:39:36;;;;;;;10.27;8.13;;;;;;;;;;5064231;28;20054;-84
2021/08/30 06:42:02;;;;;;;15.80;8.77;;;;;;;;;;5045950;28;20033;-83
2021/08/30 06:44:28;;;;;;;11.30;8.60;;;;;;;;;;5045010;28;20025;-84
2021/08/30 06:46:53;;;;;;;12.38;8.27;;;;;;;;;;5047424;28;20028;-84
2021/08/30 06:49:19;;;;;;;10.20;8.52;;;;;;;;;;5044344;28;20052;-84
2021/08/30 06:51:44;;;;;;;11.52;8.30;;;;;;;;;;5045585;28;20067;-86
2021/08/30 06:54:10;;;;;;;17.63;8.65;;;;;;;;;;5064680;28;20033;-85
2021/08/30 06:56:37;;;;;;;11.23;8.73;;;;;;;;;;5065137;28;20049;-85
2021/08/30 06:59:07;;;;;;;12.35;8.75;;;;;;;;;;5048582;28;20048;-85
2021/08/30 07:01:36;;;;;;;9.98;8.18;;;;;;;;;;5048563;28;20041;-85
2021/08/30 07:04:04;;;;;;;10.88;8.10;;;;;;;;;;5048828;28;20494;-85
2021/08/30 07:06:33;;;;;;;10.43;8.00;;;;;;;;;;5062860;28;20055;-85
2021/08/30 07:09:02;;;;;;;9.40;7.93;;;;;;;;;;5041952;28;20037;-85
2021/08/30 07:11:30;;;;;;;13.10;7.65;;;;;;;;;;5025711;28;20033;-85
2021/08/30 07:14:01;;;;;;;10.20;7.72;;;;;;;;;;5024736;28;20470;-85
2021/08/30 07:16:27;;;;;;;9.68;7.80;;;;;;;;;;5025038;28;20048;-85
2021/08/30 07:18:54;;;;;;;8.32;6.55;;;;;;;;;;5024453;28;20514;-85
2021/08/30 07:21:20;;;;;;;12.85;8.27;;;;;;;;;;5040809;28;20041;-85
2021/08/30 07:23:46;;;;;;;9.15;7.32;;;;;;;;;;5024908;28;20033;-85
2021/08/30 07:26:13;;;;;;;11.75;7.70;;;;;;;;;;5025495;28;20033;-85
2021/08/30 07:28:39;;;;;;;17.63;8.05;;;;;;;;;;5040343;28;20048;-85
2021/08/30 07:31:04;;;;;;;9.15;7.53;;;;;;;;;;5024302;28;20034;-85
2021/08/30 07:33:33;;;;;;;9.75;7.30;;;;;;;;;;5023103;28;20102;-85
2021/08/30 07:36:00;;;;;;;12.23;8.05;;;;;;;;;;5023960;28;20033;-85
2021/08/30 07:38:28;;;;;;;13.27;7.85;;;;;;;;;;5037042;28;20087;-85
2021/08/30 07:40:57;;;;;;;11.00;7.22;;;;;;;;;;5043821;28;20029;-85
2021/08/30 07:43:24;;;;;;;10.93;8.32;;;;;;;;;;5043480;28;20041;-85
2021/08/30 07:45:49;;;;;;;10.70;7.20;;;;;;;;;;5060022;28;20486;-85
2021/08/30 07:48:15;;;;;;;10.82;7.82;;;;;;;;;;5043417;28;20056;-85
2021/08/30 07:50:41;;;;;;;11.38;6.88;;;;;;;;;;5059978;28;20036;-85
2021/08/30 07:53:07;;;;;;;8.77;6.93;;;;;;;;;;5060842;28;20082;-85
2021/08/30 07:55:35;;;;;;;11.77;7.57;;;;;;;;;;5060323;28;20060;-85
2021/08/30 07:58:02;;;;;;;10.27;7.57;;;;;;;;;;5043525;28;20037;-85
2021/08/30 08:00:27;;;;;;;11.40;7.80;;;;;;;;;;5044300;28;20044;-85
2021/08/30 08:02:52;;;;;;;9.30;7.38;;;;;;;;;;5044396;28;20045;-85
2021/08/30 08:05:18;;;;;;;9.13;6.72;;;;;;;;;;5044368;28;20051;-85
2021/08/30 08:07:44;;;;;;;12.15;7.50;;;;;;;;;;5061195;28;20036;-85
2021/08/30 08:10:12;;;;;;;10.13;7.70;;;;;;;;;;5043736;28;20037;-84
2021/08/30 08:12:40;;;;;;;9.35;7.88;;;;;;;;;;5043634;28;20037;-85
2021/08/30 08:15:08;;;;;;;11.45;7.15;;;;;;;;;;5075357;28;20097;-85
2021/08/30 08:17:36;;;;;;;9.55;7.13;;;;;;;;;;5079941;28;20036;-85
2021/08/30 08:20:04;;;;;;;13.63;8.02;;;;;;;;;;5063967;28;20028;-85
2021/08/30 08:22:34;;;;;;;13.13;7.90;;;;;;;;;;5064900;28;20040;-85
2021/08/30 08:25:03;;;;;;;10.57;8.05;;;;;;;;;;5064697;28;20094;-85
2021/08/30 08:27:31;;;;;;;9.32;6.78;;;;;;;;;;5064281;28;20029;-85
2021/08/30 08:29:57;;;;;;;8.18;6.53;;;;;;;;;;5081068;28;20036;-85
2021/08/30 08:32:26;;;;;;;11.60;7.88;;;;;;;;;;5080985;28;20383;-85
2021/08/30 08:34:51;;;;;;;8.10;6.63;;;;;;;;;;5079671;28;20032;-85
2021/08/30 08:37:17;;;;;;;9.57;6.80;;;;;;;;;;5059926;28;20035;-85
2021/08/30 08:39:44;;;;;;;8.50;7.03;;;;;;;;;;5042430;28;20033;-85
2021/08/30 08:42:11;;;;;;;9.55;7.10;;;;;;;;;;5019882;28;20059;-84
2021/08/30 08:44:37;;;;;;;12.07;7.90;;;;;;;;;;5036259;28;20045;-84
2021/08/30 08:47:05;;;;;;;11.43;6.93;;;;;;;;;;5020487;28;20033;-85
2021/08/30 08:49:33;;;;;;;11.20;6.75;;;;;;;;;;5020132;28;20055;-85
2021/08/30 08:52:01;;;;;;;8.75;5.93;;;;;;;;;;5019180;28;20560;-84
2021/08/30 08:54:31;;;;;;;12.85;6.40;;;;;;;;;;5019067;28;20040;-84
2021/08/30 08:56:57;;;;;;;14.95;6.40;;;;;;;;;;5018960;28;20041;-84
2021/08/30 08:59:24;;;;;;;10.55;5.95;;;;;;;;;;5018783;28;20044;-83
2021/08/30 09:01:58;;;;;;;9.57;5.13;;;;;;;;;;5018715;28;20559;-84
2021/08/30 09:04:32;;;;;;;8.38;6.10;;;;;;;;;;5018531;28;20030;-81
2021/08/30 09:07:10;;;;;;;9.60;5.68;;;;;;;;;;5035040;28;20034;-80
2021/08/30 09:09:38;;;;;;;7.65;5.68;;;;;;;;;;5017309;28;20037;-80
2021/08/30 09:12:04;;;;;;;8.02;5.50;;;;;;;;;;5034205;28;20033;-80
2021/08/30 09:14:30;;;;;;;9.48;6.03;;;;;;;;;;5034410;28;20045;-80
2021/08/30 09:17:09;;;;;;;11.80;6.30;;;;;;;;;;5037165;28;20030;-80
2021/08/30 09:19:36;;;;;;;8.73;5.72;;;;;;;;;;5018364;28;20037;-80
2021/08/30 09:22:04;;;;;;;9.45;5.45;;;;;;;;;;5017763;28;20128;-80
2021/08/30 09:24:30;;;;;;;8.50;5.75;;;;;;;;;;5035966;28;20033;-80
2021/08/30 09:27:06;;;;;;;6.80;5.38;;;;;;;;;;5018871;28;20056;-80
2021/08/30 09:29:35;;;;;;;9.57;5.20;;;;;;;;;;5035226;28;20099;-82
2021/08/30 09:32:06;;;;;;;11.15;5.32;;;;;;;;;;5019410;28;20106;-81
2021/08/30 09:34:45;;;;;;;8.55;5.63;;;;;;;;;;5036494;28;20045;-80
2021/08/30 09:37:21;;;;;;;9.02;5.95;;;;;;;;;;5036340;28;20041;-80
2021/08/30 09:40:00;;;;;;;8.43;5.78;;;;;;;;;;5036504;28;20044;-80
2021/08/30 09:42:29;;;;;;;8.90;6.18;;;;;;;;;;5019162;28;20056;-79
2021/08/30 09:45:17;;;;;;;8.93;6.20;;;;;;;;;;5019183;28;20037;-80
2021/08/30 09:47:54;;;;;;;9.40;6.07;;;;;;;;;;5019581;28;20506;-80
2021/08/30 09:50:27;;;;;;;6.43;5.65;;;;;;;;;;5025876;28;20053;-81
2021/08/30 09:52:53;;;;;;;9.10;6.70;;;;;;;;;;5024781;28;20040;-80
2021/08/30 09:55:18;;;;;;;9.10;5.78;;;;;;;;;;5025985;28;20429;-80
2021/08/30 09:57:49;;;;;;;7.57;5.45;;;;;;;;;;5022082;28;20034;-81
2021/08/30 10:00:16;;;;;;;6.82;5.72;;;;;;;;;;5024117;28;20049;-79
2021/08/30 10:02:46;;;;;;;7.07;5.85;;;;;;;;;;5041009;28;20041;-80
2021/08/30 10:05:12;;;;;;;6.68;5.43;;;;;;;;;;5040445;28;20060;-79
2021/08/30 10:07:39;;;;;;;10.82;5.47;;;;;;;;;;5023213;28;20129;-80
2021/08/30 10:10:06;;;;;;;6.55;4.90;;;;;;;;;;5042366;28;20025;-80
2021/08/30 10:12:32;;;;;;;8.10;5.03;;;;;;;;;;5042194;28;20033;-79
2021/08/30 10:15:03;;;;;;;7.53;5.15;;;;;;;;;;5041542;28;20048;-79
2021/08/30 10:17:29;;;;;;;13.50;9.38;;;;;;;;;;5058873;28;20037;-80
2021/08/30 10:20:02;;;;;;;7.85;5.90;;;;;;;;;;5060257;28;20102;-81
2021/08/30 10:22:28;;;;;;;7.57;4.65;;;;;;;;;;5060115;28;20470;-81
2021/08/30 10:24:54;;;;;;;8.85;4.90;;;;;;;;;;5044381;28;20104;-80
2021/08/30 10:27:32;;;;;;;7.30;5.07;;;;;;;;;;5063825;28;20106;-81
2021/08/30 10:30:10;;;;;;;6.43;5.07;;;;;;;;;;5045634;28;20037;-80
2021/08/30 10:32:38;;;;;;;7.30;4.97;;;;;;;;;;5044806;28;20071;-85
2021/08/30 10:35:18;;;;;;;6.00;4.70;;;;;;;;;;5061767;28;20033;-81
2021/08/30 10:37:57;;;;;;;6.38;4.78;;;;;;;;;;5061455;28;20452;-81
2021/08/30 10:40:28;;;;;;;7.50;5.43;;;;;;;;;;5040799;28;20041;-78
2021/08/30 10:43:14;;;;;;;6.88;5.18;;;;;;;;;;5061022;28;20048;-78
2021/08/30 10:45:45;;;;;;;9.60;5.70;;;;;;;;;;5060098;28;20471;-80
2021/08/30 10:48:13;;;;;;;6.50;5.00;;;;;;;;;;5042345;28;20171;-79
2021/08/30 10:50:45;;;;;;;6.90;5.40;;;;;;;;;;5042999;28;20032;-79
2021/08/30 10:53:19;;;;;;;9.55;4.53;;;;;;;;;;5058122;28;20037;-80
2021/08/30 10:55:54;;;;;;;11.68;5.50;;;;;;;;;;5057995;28;20040;-80
2021/08/30 10:58:25;;;;;;;10.15;5.32;;;;;;;;;;5058513;28;20094;-82
2021/08/30 11:00:53;;;;;;;8.70;5.97;;;;;;;;;;5042082;28;20483;-80
2021/08/30 11:03:31;;;;;;;8.18;4.97;;;;;;;;;;5042503;28;20674;-81
2021/08/30 11:06:08;;;;;;;10.30;6.05;;;;;;;;;;5058590;28;20420;-83
2021/08/30 11:08:37;;;;;;;8.10;4.75;;;;;;;;;;5058226;28;20037;-83
2021/08/30 11:11:19;;;;;;;9.82;4.78;;;;;;;;;;5039854;28;20487;-83
2021/08/30 11:13:58;;;;;;;8.63;5.07;;;;;;;;;;5057524;28;20437;-84
2021/08/30 11:16:24;;;;;;;6.75;4.60;;;;;;;;;;5040860;28;20094;-80
2021/08/30 11:18:59;;;;;;;8.07;4.43;;;;;;;;;;5040985;28;20030;-82
2021/08/30 11:21:57;;;;;;;9.82;4.97;;;;;;;;;;5041391;28;20501;-81
2021/08/30 11:24:35;;;;;;;6.45;4.43;;;;;;;;;;5056835;28;20537;-80
2021/08/30 11:27:13;;;;;;;6.65;4.25;;;;;;;;;;5040152;28;20037;-79
2021/08/30 11:29:47;;;;;;;4.57;3.78;;;;;;;;;;5040610;28;20123;-80
2021/08/30 11:32:14;;;;;;;8.30;4.47;;;;;;;;;;5039859;28;20040;-79
2021/08/30 11:34:40;;;;;;;8.73;4.47;;;;;;;;;;5058884;28;20106;-79
2021/08/30 11:37:10;;;;;;;6.13;4.18;;;;;;;;;;5057622;28;20028;-79
2021/08/30 11:39:39;;;;;;;6.30;4.05;;;;;;;;;;5057789;28;20033;-82
2021/08/30 11:42:07;;;;;;;7.78;3.65;;;;;;;;;;5058502;28;20475;-81
2021/08/30 11:44:34;;;;;;;4.93;3.78;;;;;;;;;;5040085;28;20386;-78
2021/08/30 11:47:03;;;;;;;7.38;3.92;;;;;;;;;;5057857;28;20084;-80
2021/08/30 11:49:31;;;;;;;9.68;4.40;;;;;;;;;;5043044;28;20047;-80
2021/08/30 11:52:01;;;;;;;5.85;4.47;;;;;;;;;;5043340;28;20095;-80
2021/08/30 11:54:30;;;;;;;6.40;4.25;;;;;;;;;;5041724;28;20036;-81
2021/08/30 11:56:59;;;;;;;4.57;4.00;;;;;;;;;;5042061;28;20033;-78
2021/08/30 11:59:31;;;;;;;6.90;4.75;;;;;;;;;;5055123;28;20036;-77
2021/08/30 12:01:57;;;;;;;7.07;4.40;;;;;;;;;;5038032;28;20044;-80
2021/08/30 12:04:26;;;;;;;6.40;4.68;;;;;;;;;;5038099;28;20123;-78
2021/08/30 12:06:59;;;;;;;7.50;4.28;;;;;;;;;;5055073;28;20033;-79
2021/08/30 12:09:24;;;;;;;6.55;4.60;;;;;;;;;;5048412;28;20029;-79
2021/08/30 12:11:54;;;;;;;6.95;4.90;;;;;;;;;;5018638;28;20132;-79
2021/08/30 12:14:24;;;;;;;6.85;4.85;;;;;;;;;;5021115;28;20033;-80
2021/08/30 12:16:57;;;;;;;6.35;4.18;;;;;;;;;;5023389;28;20045;-80
2021/08/30 12:19:26;;;;;;;5.32;4.10;;;;;;;;;;5022205;28;20029;-80
2021/08/30 12:21:51;;;;;;;6.97;4.45;;;;;;;;;;5037534;28;20037;-79
2021/08/30 12:24:19;;;;;;;6.25;4.47;;;;;;;;;;5036958;28;20468;-79
2021/08/30 12:26:49;;;;;;;7.15;4.10;;;;;;;;;;5024025;28;20064;-81
2021/08/30 12:29:15;;;;;;;8.50;4.68;;;;;;;;;;5040336;28;20057;-79
2021/08/30 12:31:41;;;;;;;10.80;4.18;;;;;;;;;;5023772;28;20080;-80
2021/08/30 12:34:14;;;;;;;10.60;3.97;;;;;;;;;;5023485;28;20042;-80
2021/08/30 12:36:42;;;;;;;5.35;4.40;;;;;;;;;;5024572;28;20034;-80
2021/08/30 12:39:08;;;;;;;6.03;3.90;;;;;;;;;;5050034;28;20514;-80
2021/08/30 12:41:34;;;;;;;5.85;4.10;;;;;;;;;;5064426;28;20111;-80
2021/08/30 12:43:59;;;;;;;4.90;3.55;;;;;;;;;;5081286;28;20036;-80
2021/08/30 12:46:26;;;;;;;7.78;3.75;;;;;;;;;;5077792;28;20029;-81
2021/08/30 12:48:52;;;;;;;6.40;4.40;;;;;;;;;;5061089;28;20062;-81
2021/08/30 12:51:18;;;;;;;5.43;3.92;;;;;;;;;;5080114;28;20032;-81
2021/08/30 12:53:44;;;;;;;4.97;4.07;;;;;;;;;;5079082;28;20096;-81
2021/08/30 12:56:10;;;;;;;6.35;4.53;;;;;;;;;;5061459;28;20127;-81
2021/08/30 12:58:37;;;;;;;7.93;5.63;;;;;;;;;;5078596;28;20051;-81
2021/08/30 13:01:03;;;;;;;6.35;4.38;;;;;;;;;;5061733;28;20090;-81
2021/08/30 13:03:30;;;;;;;7.13;5.10;;;;;;;;;;5061512;28;20037;-81
2021/08/30 13:05:56;;;;;;;7.20;4.90;;;;;;;;;;5078212;28;20062;-81
2021/08/30 13:08:21;;;;;;;10.95;4.72;;;;;;;;;;5064924;28;20041;-81
2021/08/30 13:10:48;;;;;;;10.05;4.47;;;;;;;;;;5021097;28;20124;-81
2021/08/30 13:13:16;;;;;;;5.45;4.28;;;;;;;;;;5038087;28;20033;-81
2021/08/30 13:15:44;;;;;;;5.78;5.03;;;;;;;;;;5037185;28;20041;-81
2021/08/30 13:18:10;;;;;;;6.82;4.75;;;;;;;;;;5038571;28;20121;-81
2021/08/30 13:20:41;;;;;;;6.20;4.60;;;;;;;;;;5021671;28;20049;-81
2021/08/30 13:23:11;;;;;;;7.03;4.65;;;;;;;;;;5021757;28;20547;-81
2021/08/30 13:25:37;;;;;;;7.47;4.45;;;;;;;;;;5022867;28;20052;-81
2021/08/30 13:28:03;;;;;;;6.85;4.82;;;;;;;;;;5024211;28;20038;-81
2021/08/30 13:30:29;;;;;;;8.38;4.65;;;;;;;;;;5026779;28;20038;-81
2021/08/30 13:32:57;;;;;;;6.50;4.40;;;;;;;;;;5043672;28;20124;-81
2021/08/30 13:35:23;;;;;;;5.78;4.55;;;;;;;;;;5045381;28;20043;-81
2021/08/30 13:37:50;;;;;;;6.75;4.22;;;;;;;;;;5044024;28;20068;-81
2021/08/30 13:40:18;;;;;;;10.25;4.93;;;;;;;;;;5036824;28;20029;-81
2021/08/30 13:42:44;;;;;;;12.60;9.70;;;;;;;;;;5049192;28;20041;-81
2021/08/30 13:45:11;;;;;;;12.23;8.48;;;;;;;;;;5047973;28;20078;-81
2021/08/30 13:47:37;;;;;;;7.00;5.38;;;;;;;;;;5049690;28;20064;-81
2021/08/30 13:50:03;;;;;;;7.75;4.40;;;;;;;;;;5047783;28;20033;-81
2021/08/30 13:52:29;;;;;;;10.05;4.05;;;;;;;;;;5048911;28;20547;-81
2021/08/30 13:54:56;;;;;;;9.48;4.70;;;;;;;;;;5049537;28;20061;-81
2021/08/30 13:57:21;;;;;;;9.27;4.60;;;;;;;;;;5065700;28;20068;-81
2021/08/30 13:59:48;;;;;;;6.25;5.13;;;;;;;;;;5065242;28;20037;-81
2021/08/30 14:02:14;;;;;;;7.78;4.35;;;;;;;;;;5049321;28;20067;-81
2021/08/30 14:04:41;;;;;;;7.00;4.35;;;;;;;;;;5049449;28;20037;-81
2021/08/30 14:07:08;;;;;;;5.90;3.92;;;;;;;;;;5050044;28;20037;-81
2021/08/30 14:09:35;;;;;;;4.63;3.67;;;;;;;;;;5043505;28;20041;-82
2021/08/30 14:12:00;;;;;;;7.80;3.88;;;;;;;;;;5046333;28;20063;-81
2021/08/30 14:14:26;;;;;;;7.47;3.80;;;;;;;;;;5066354;28;20132;-81
2021/08/30 14:16:53;;;;;;;8.75;4.32;;;;;;;;;;5066272;28;20033;-81
2021/08/30 14:19:18;;;;;;;10.38;4.30;;;;;;;;;;5066156;28;20441;-81
2021/08/30 14:21:44;;;;;;;6.88;4.35;;;;;;;;;;5067095;28;20041;-81
2021/08/30 14:24:10;;;;;;;4.53;3.65;;;;;;;;;;5049381;28;20033;-81
2021/08/30 14:26:37;;;;;;;5.68;3.67;;;;;;;;;;5066328;28;20029;-80
2021/08/30 14:29:02;;;;;;;4.20;3.70;;;;;;;;;;5049147;28;20037;-82
2021/08/30 14:31:29;;;;;;;6.75;3.90;;;;;;;;;;5049591;28;20032;-82
2021/08/30 14:33:54;;;;;;;5.93;3.58;;;;;;;;;;5059084;28;20082;-78
2021/08/30 14:36:21;;;;;;;8.90;3.50;;;;;;;;;;5056310;28;20037;-77
2021/08/30 14:38:47;;;;;;;4.35;3.42;;;;;;;;;;5056176;28;20063;-77
2021/08/30 14:41:13;;;;;;;6.90;3.38;;;;;;;;;;5070898;28;20047;-77